createdAt,value
2018-08-18T00:00:26.504Z,3.80
2018-08-18T00:02:55.806Z,3.70
2018-08-18T00:05:25.143Z,3.67
2018-08-18T00:07:54.433Z,3.87
2018-08-18T00:10:23.959Z,3.50
2018-08-18T00:12:53.320Z,3.77
2018-08-18T00:15:22.613Z,3.20
2018-08-18T00:17:51.930Z,3.20
2018-08-18T00:20:25.367Z,3.33
2018-08-18T00:22:54.668Z,2.97
2018-08-18T00:25:23.911Z,3.60
2018-08-18T00:27:53.408Z,2.97
2018-08-18T00:30:26.705Z,3.23
2018-08-18T00:32:56.040Z,2.90
2018-08-18T00:35:25.306Z,3.30
2018-08-18T00:37:54.563Z,2.60
2018-08-18T00:40:23.793Z,3.30
2018-08-18T00:42:53.144Z,3.30
2018-08-18T00:45:22.371Z,3.07
2018-08-18T00:47:52.280Z,2.67
2018-08-18T00:50:34.747Z,3.03
2018-08-18T00:53:04.666Z,3.67
2018-08-18T00:55:34.267Z,3.40
2018-08-18T00:58:03.877Z,3.10
2018-08-18T01:00:33.195Z,3.13
2018-08-18T01:03:02.551Z,3.33
2018-08-18T01:05:31.781Z,2.87
2018-08-18T01:08:01.311Z,3.73
2018-08-18T01:10:30.571Z,3.57
2018-08-18T01:12:59.852Z,3.17
2018-08-18T01:15:29.275Z,2.60
2018-08-18T01:17:58.543Z,3.03
2018-08-18T01:20:27.754Z,3.10
2018-08-18T01:23:01.756Z,2.63
2018-08-18T01:25:31.319Z,2.77
2018-08-18T01:28:01.669Z,3.30
2018-08-18T01:30:30.962Z,3.17
2018-08-18T01:33:00.156Z,3.10
2018-08-18T01:35:29.415Z,3.60
2018-08-18T01:37:58.620Z,3.13
2018-08-18T01:40:27.846Z,3.10
2018-08-18T01:42:57.084Z,3.43
2018-08-18T01:45:26.315Z,3.23
2018-08-18T01:47:55.532Z,3.00
2018-08-18T01:50:24.719Z,3.37
2018-08-18T01:52:53.951Z,4.00
2018-08-18T01:55:23.131Z,3.70
2018-08-18T01:57:52.346Z,3.80
2018-08-18T02:00:26.539Z,3.20
2018-08-18T02:02:55.928Z,4.20
2018-08-18T02:05:26.592Z,4.00
2018-08-18T02:07:55.959Z,3.47
2018-08-18T02:10:25.254Z,4.27
2018-08-18T02:13:03.512Z,4.23
2018-08-18T02:15:33.059Z,4.13
2018-08-18T02:18:02.317Z,4.17
2018-08-18T02:20:31.525Z,4.40
2018-08-18T02:23:00.692Z,4.50
2018-08-18T02:25:29.928Z,4.20
2018-08-18T02:27:59.102Z,5.00
2018-08-18T02:30:28.342Z,3.97
2018-08-18T02:32:58.089Z,4.83
2018-08-18T02:35:27.362Z,5.20
2018-08-18T02:37:56.602Z,5.20
2018-08-18T02:40:25.794Z,4.50
2018-08-18T02:42:55.392Z,5.97
2018-08-18T02:45:24.572Z,4.80
2018-08-18T02:48:09.787Z,5.33
2018-08-18T02:50:43.506Z,5.30
2018-08-18T02:53:24.324Z,5.10
2018-08-18T02:55:54.215Z,5.83
2018-08-18T02:58:23.671Z,5.40
2018-08-18T03:00:53.328Z,5.90
2018-08-18T03:03:22.646Z,5.53
2018-08-18T03:05:52.568Z,6.33
2018-08-18T03:08:21.781Z,6.20
2018-08-18T03:10:51.616Z,5.87
2018-08-18T03:13:20.956Z,5.67
2018-08-18T03:15:53.091Z,6.40
2018-08-18T03:18:34.977Z,6.27
2018-08-18T03:21:04.512Z,5.70
2018-08-18T03:23:34.824Z,5.93
2018-08-18T03:26:04.320Z,5.87
2018-08-18T03:28:41.840Z,5.67
2018-08-18T03:31:11.422Z,6.17
2018-08-18T03:33:40.716Z,5.93
2018-08-18T03:36:24.503Z,6.23
2018-08-18T03:38:55.251Z,6.20
2018-08-18T03:41:25.480Z,6.10
2018-08-18T03:43:55.569Z,5.80
2018-08-18T03:46:25.003Z,6.60
2018-08-18T03:48:54.324Z,6.83
2018-08-18T03:51:30.936Z,6.33
2018-08-18T03:54:00.835Z,6.13
2018-08-18T03:56:30.195Z,6.97
2018-08-18T03:58:59.917Z,6.87
2018-08-18T04:01:42.347Z,7.20
2018-08-18T04:04:12.791Z,6.53
2018-08-18T04:06:43.207Z,6.53
2018-08-18T04:09:15.106Z,6.83
2018-08-18T04:11:44.377Z,6.20
2018-08-18T04:14:13.736Z,6.57
2018-08-18T04:16:52.216Z,6.17
2018-08-18T04:19:22.472Z,5.90
2018-08-18T04:21:54.456Z,6.43
2018-08-18T04:24:29.931Z,7.00
2018-08-18T04:26:59.242Z,6.40
2018-08-18T04:29:28.450Z,6.90
2018-08-18T04:31:59.422Z,6.93
2018-08-18T04:34:28.726Z,6.43
2018-08-18T04:36:58.215Z,7.27
2018-08-18T04:39:27.436Z,7.70
2018-08-18T04:41:56.643Z,8.70
2018-08-18T04:44:25.891Z,7.87
2018-08-18T04:46:55.056Z,7.83
2018-08-18T04:49:24.296Z,8.50
2018-08-18T04:51:53.488Z,8.40
2018-08-18T04:54:22.668Z,8.17
2018-08-18T04:56:51.950Z,7.93
2018-08-18T04:59:22.570Z,9.47
2018-08-18T05:01:51.880Z,8.97
2018-08-18T05:04:21.843Z,8.77
2018-08-18T05:06:51.113Z,8.50
2018-08-18T05:09:20.338Z,8.70
2018-08-18T05:11:49.533Z,8.57
2018-08-18T05:14:18.721Z,9.70
2018-08-18T05:16:48.751Z,8.77
2018-08-18T05:19:18.053Z,9.87
2018-08-18T05:21:47.329Z,9.73
2018-08-18T05:24:25.516Z,9.50
2018-08-18T05:26:55.827Z,8.90
2018-08-18T05:29:25.146Z,9.50
2018-08-18T05:31:54.388Z,8.90
2018-08-18T05:34:23.579Z,9.40
2018-08-18T05:36:52.886Z,10.00
2018-08-18T05:39:22.092Z,8.80
2018-08-18T05:41:51.295Z,9.20
2018-08-18T05:44:20.577Z,10.10
2018-08-18T05:46:49.800Z,10.20
2018-08-18T05:49:19.037Z,10.07
2018-08-18T05:51:50.070Z,11.33
2018-08-18T05:54:28.435Z,11.40
2018-08-18T05:56:57.636Z,10.33
2018-08-18T05:59:26.862Z,12.00
2018-08-18T06:01:56.254Z,11.10
2018-08-18T06:04:25.619Z,11.57
2018-08-18T06:06:54.895Z,11.23
2018-08-18T06:09:24.473Z,10.53
2018-08-18T06:11:53.916Z,9.33
2018-08-18T06:14:23.103Z,10.77
2018-08-18T06:16:52.337Z,11.43
2018-08-18T06:19:21.575Z,11.67
2018-08-18T06:21:50.833Z,11.10
2018-08-18T06:24:20.171Z,11.20
2018-08-18T06:26:49.356Z,10.77
2018-08-18T06:29:18.600Z,9.80
2018-08-18T06:31:59.415Z,10.50
2018-08-18T06:34:31.764Z,11.07
2018-08-18T06:37:02.251Z,11.30
2018-08-18T06:39:46.592Z,11.70
2018-08-18T06:42:26.691Z,12.20
2018-08-18T06:44:55.932Z,10.93
2018-08-18T06:47:25.233Z,12.43
2018-08-18T06:49:54.637Z,13.00
2018-08-18T06:52:23.885Z,12.80
2018-08-18T06:54:55.275Z,12.43
2018-08-18T06:57:35.443Z,13.27
2018-08-18T07:00:09.510Z,12.30
2018-08-18T07:02:39.822Z,15.10
2018-08-18T07:05:11.639Z,14.30
2018-08-18T07:07:41.726Z,12.70
2018-08-18T07:10:22.893Z,12.57
2018-08-18T07:12:56.432Z,11.70
2018-08-18T07:15:27.921Z,12.60
2018-08-18T07:17:57.182Z,11.43
2018-08-18T07:20:26.446Z,13.07
2018-08-18T07:22:56.780Z,12.00
2018-08-18T07:25:26.008Z,10.67
2018-08-18T07:28:00.730Z,11.10
2018-08-18T07:30:30.866Z,11.67
2018-08-18T07:33:00.642Z,10.27
2018-08-18T07:35:30.174Z,10.87
2018-08-18T07:37:59.477Z,10.03
2018-08-18T07:40:40.694Z,13.67
2018-08-18T07:43:10.261Z,9.37
2018-08-18T07:45:39.500Z,12.60
2018-08-18T07:48:09.187Z,11.97
2018-08-18T07:50:38.411Z,11.60
2018-08-18T07:53:08.423Z,10.30
2018-08-18T07:55:37.694Z,10.20
2018-08-18T07:58:14.849Z,10.30
2018-08-18T08:00:44.881Z,8.77
2018-08-18T08:03:15.303Z,11.10
2018-08-18T08:05:44.784Z,10.80
2018-08-18T08:08:14.202Z,11.33
2018-08-18T08:10:43.587Z,13.10
2018-08-18T08:13:14.492Z,11.20
2018-08-18T08:15:43.890Z,10.27
2018-08-18T08:18:14.866Z,13.13
2018-08-18T08:20:44.190Z,13.23
2018-08-18T08:23:13.598Z,12.73
2018-08-18T08:25:43.784Z,12.80
2018-08-18T08:28:13.538Z,11.43
2018-08-18T08:30:42.755Z,12.20
2018-08-18T08:33:13.783Z,12.03
2018-08-18T08:35:43.527Z,11.13
2018-08-18T08:38:12.835Z,13.10
2018-08-18T08:40:42.038Z,11.93
2018-08-18T08:43:24.114Z,10.20
2018-08-18T08:45:54.937Z,12.07
2018-08-18T08:48:24.236Z,14.43
2018-08-18T08:50:53.455Z,13.70
2018-08-18T08:53:22.674Z,13.93
2018-08-18T08:55:51.890Z,12.30
2018-08-18T08:58:21.106Z,12.77
2018-08-18T09:00:50.404Z,11.20
2018-08-18T09:03:19.661Z,13.17
2018-08-18T09:05:48.899Z,13.60
2018-08-18T09:08:19.052Z,13.23
2018-08-18T09:10:48.209Z,11.90
2018-08-18T09:13:17.435Z,12.90
2018-08-18T09:15:46.655Z,13.10
2018-08-18T09:18:15.879Z,11.30
2018-08-18T09:20:47.087Z,12.97
2018-08-18T09:23:16.339Z,9.40
2018-08-18T09:25:45.647Z,12.87
2018-08-18T09:28:14.868Z,11.23
2018-08-18T09:30:44.082Z,13.53
2018-08-18T09:33:13.309Z,16.00
2018-08-18T09:35:54.635Z,14.43
2018-08-18T09:38:23.827Z,9.80
2018-08-18T09:40:53.119Z,13.50
2018-08-18T09:43:26.094Z,13.00
2018-08-18T09:45:56.591Z,14.60
2018-08-18T09:48:26.869Z,13.70
2018-08-18T09:50:57.478Z,13.10
2018-08-18T09:53:27.885Z,15.10
2018-08-18T09:55:58.186Z,13.30
2018-08-18T09:58:27.431Z,13.30
2018-08-18T10:00:57.156Z,13.23
2018-08-18T10:03:26.562Z,11.80
2018-08-18T10:05:55.784Z,15.60
2018-08-18T10:08:25.226Z,13.67
2018-08-18T10:10:54.458Z,12.77
2018-08-18T10:13:24.047Z,13.07
2018-08-18T10:15:53.372Z,14.40
2018-08-18T10:18:22.628Z,14.10
2018-08-18T10:20:52.475Z,14.10
2018-08-18T10:23:21.707Z,13.10
2018-08-18T10:25:50.975Z,13.90
2018-08-18T10:28:20.183Z,13.17
2018-08-18T10:30:49.443Z,12.23
2018-08-18T10:33:18.808Z,12.23
2018-08-18T10:35:48.070Z,12.10
2018-08-18T10:38:17.855Z,13.23
2018-08-18T10:40:47.040Z,11.17
2018-08-18T10:43:16.263Z,10.30
2018-08-18T10:45:46.307Z,9.73
2018-08-18T10:48:15.520Z,10.80
2018-08-18T10:51:58.251Z,13.10
2018-08-18T10:54:27.574Z,13.17
2018-08-18T10:56:56.739Z,12.37
2018-08-18T10:59:36.766Z,10.10
2018-08-18T11:02:08.118Z,10.43
2018-08-18T11:04:37.968Z,11.60
2018-08-18T11:07:07.194Z,10.73
2018-08-18T11:09:36.414Z,10.83
2018-08-18T11:12:05.766Z,10.20
2018-08-18T11:14:35.015Z,9.80
2018-08-18T11:17:04.227Z,10.93
2018-08-18T11:19:33.469Z,11.73
2018-08-18T11:22:18.446Z,11.17
2018-08-18T11:24:47.772Z,11.03
2018-08-18T11:27:17.087Z,10.10
2018-08-18T11:29:46.521Z,11.17
2018-08-18T11:32:15.906Z,9.13
2018-08-18T11:34:45.287Z,9.60
2018-08-18T11:37:14.536Z,9.10
2018-08-18T11:39:43.850Z,8.10
2018-08-18T11:42:13.144Z,7.97
2018-08-18T11:44:42.318Z,7.77
2018-08-18T11:47:11.557Z,8.57
2018-08-18T11:49:40.786Z,8.73
2018-08-18T11:52:10.045Z,8.73
2018-08-18T11:54:39.200Z,9.17
2018-08-18T11:57:08.710Z,9.43
2018-08-18T11:59:37.895Z,10.43
2018-08-18T12:02:07.296Z,8.40
2018-08-18T12:04:36.590Z,8.53
2018-08-18T12:07:05.767Z,8.20
2018-08-18T12:09:35.159Z,8.70
2018-08-18T12:12:04.475Z,10.23
2018-08-18T12:14:33.688Z,7.80
2018-08-18T12:17:03.054Z,8.10
2018-08-18T12:19:32.263Z,8.50
2018-08-18T12:22:01.456Z,8.60
2018-08-18T12:24:30.704Z,8.23
2018-08-18T12:27:10.359Z,7.20
2018-08-18T12:29:39.689Z,5.87
2018-08-18T12:32:25.402Z,5.70
2018-08-18T12:34:55.657Z,6.07
2018-08-18T12:37:27.420Z,6.27
2018-08-18T12:39:58.426Z,5.90
2018-08-18T12:42:29.003Z,6.17
2018-08-18T12:44:58.338Z,7.20
2018-08-18T12:47:27.582Z,7.87
2018-08-18T12:49:56.848Z,7.23
2018-08-18T12:52:27.280Z,7.80
2018-08-18T12:54:56.506Z,7.20
2018-08-18T12:57:36.679Z,7.47
2018-08-18T13:00:06.128Z,7.53
2018-08-18T13:02:43.690Z,7.20
2018-08-18T13:05:13.007Z,7.00
2018-08-18T13:07:43.387Z,7.40
2018-08-18T13:10:17.555Z,9.20
2018-08-18T13:12:46.831Z,9.10
2018-08-18T13:15:17.796Z,8.03
2018-08-18T13:17:47.216Z,7.80
2018-08-18T13:20:22.987Z,7.27
2018-08-18T13:22:52.410Z,6.20
2018-08-18T13:25:22.073Z,6.20
2018-08-18T13:27:54.757Z,6.27
2018-08-18T13:30:25.063Z,5.90
2018-08-18T13:32:57.106Z,5.70
2018-08-18T13:35:26.984Z,5.43
2018-08-18T13:37:56.297Z,4.50
2018-08-18T13:40:27.306Z,5.00
2018-08-18T13:42:56.602Z,4.90
2018-08-18T13:45:40.270Z,4.80
2018-08-18T13:48:10.777Z,5.00
2018-08-18T13:50:40.335Z,5.27
2018-08-18T13:53:11.018Z,5.10
2018-08-18T13:55:41.578Z,4.50
2018-08-18T13:58:12.698Z,4.80
2018-08-18T14:00:41.979Z,5.30
2018-08-18T14:03:30.631Z,4.90
2018-08-18T14:05:59.931Z,4.90
2018-08-18T14:08:29.142Z,4.70
2018-08-18T14:10:58.368Z,4.63
2018-08-18T14:13:28.609Z,4.83
2018-08-18T14:15:58.930Z,4.70
2018-08-18T14:18:29.468Z,4.90
2018-08-18T14:21:04.698Z,4.53
2018-08-18T14:23:34.189Z,4.27
2018-08-18T14:26:04.833Z,4.37
2018-08-18T14:28:34.092Z,4.77
2018-08-18T14:31:03.276Z,4.33
2018-08-18T14:33:33.010Z,5.20
2018-08-18T14:36:07.571Z,4.57
2018-08-18T14:38:37.295Z,4.40
2018-08-18T14:41:07.104Z,4.80
2018-08-18T14:43:38.730Z,4.20
2018-08-18T14:46:10.712Z,5.20
2018-08-18T14:48:39.996Z,5.10
2018-08-18T14:51:10.031Z,4.80
2018-08-18T14:53:43.694Z,5.50
2018-08-18T14:56:13.006Z,4.63
2018-08-18T14:58:44.105Z,4.80
2018-08-18T15:01:15.140Z,4.83
2018-08-18T15:03:44.445Z,5.40
2018-08-18T15:06:14.301Z,5.30
2018-08-18T15:08:43.838Z,5.17
2018-08-18T15:11:13.169Z,4.67
2018-08-18T15:13:43.292Z,5.40
2018-08-18T15:16:12.777Z,5.03
2018-08-18T15:18:41.972Z,5.07
2018-08-18T15:21:11.434Z,4.50
2018-08-18T15:23:40.482Z,4.90
2018-08-18T15:26:09.695Z,5.40
2018-08-18T15:28:38.892Z,4.63
2018-08-18T15:31:08.258Z,6.93
2018-08-18T15:33:37.443Z,5.40
2018-08-18T15:36:16.372Z,4.97
2018-08-18T15:38:46.633Z,4.87
2018-08-18T15:41:16.094Z,5.03
2018-08-18T15:43:45.432Z,4.97
2018-08-18T15:46:14.710Z,5.17
2018-08-18T15:48:43.973Z,5.00
2018-08-18T15:51:13.159Z,4.57
2018-08-18T15:53:54.054Z,4.50
2018-08-18T15:56:24.054Z,4.97
2018-08-18T15:58:54.219Z,5.20
2018-08-18T16:01:27.166Z,6.10
2018-08-18T16:03:57.803Z,5.00
2018-08-18T16:06:27.059Z,5.07
2018-08-18T16:08:56.435Z,5.57
2018-08-18T16:11:25.819Z,4.97
2018-08-18T16:13:55.045Z,5.50
2018-08-18T16:16:24.304Z,5.40
2018-08-18T16:19:03.228Z,4.93
2018-08-18T16:21:34.980Z,5.00
2018-08-18T16:24:04.347Z,5.60
2018-08-18T16:26:33.887Z,4.90
2018-08-18T16:29:03.079Z,5.30
2018-08-18T16:31:32.357Z,5.20
2018-08-18T16:34:01.607Z,4.90
2018-08-18T16:36:36.049Z,5.53
2018-08-18T16:39:06.481Z,4.90
2018-08-18T16:41:35.777Z,5.30
2018-08-18T16:44:05.025Z,4.37
2018-08-18T16:46:34.432Z,5.53
2018-08-18T16:49:03.760Z,4.83
2018-08-18T16:51:32.978Z,4.67
2018-08-18T16:54:19.684Z,5.00
2018-08-18T16:56:49.136Z,5.60
2018-08-18T16:59:18.392Z,5.23
2018-08-18T17:01:47.651Z,5.80
2018-08-18T17:04:22.915Z,4.77
2018-08-18T17:06:52.313Z,5.00
2018-08-18T17:09:32.689Z,4.87
2018-08-18T17:12:14.851Z,4.20
2018-08-18T17:14:44.105Z,5.50
2018-08-18T17:17:13.501Z,6.07
2018-08-18T17:19:42.660Z,5.00
2018-08-18T17:22:13.014Z,5.07
2018-08-18T17:24:42.676Z,5.80
2018-08-18T17:27:11.946Z,5.80
2018-08-18T17:29:42.658Z,5.10
2018-08-18T17:32:12.000Z,5.43
2018-08-18T17:34:41.224Z,5.60
2018-08-18T17:37:10.443Z,5.33
2018-08-18T17:39:39.742Z,6.03
2018-08-18T17:42:08.966Z,5.70
2018-08-18T17:44:38.382Z,5.50
2018-08-18T17:47:09.146Z,6.00
2018-08-18T17:49:58.236Z,5.30
2018-08-18T17:52:28.356Z,6.30
2018-08-18T17:55:11.506Z,5.10
2018-08-18T17:57:41.463Z,5.50
2018-08-18T18:00:16.556Z,5.77
2018-08-18T18:02:51.775Z,6.27
2018-08-18T18:05:23.078Z,6.00
2018-08-18T18:07:58.060Z,6.60
2018-08-18T18:10:29.956Z,6.63
2018-08-18T18:12:59.770Z,6.03
2018-08-18T18:15:38.928Z,5.93
2018-08-18T18:18:12.402Z,6.00
2018-08-18T18:20:43.491Z,6.67
2018-08-18T18:23:13.817Z,6.20
2018-08-18T18:25:44.141Z,7.57
2018-08-18T18:28:13.775Z,6.70
2018-08-18T18:30:43.100Z,6.70
2018-08-18T18:33:12.811Z,6.17
2018-08-18T18:35:43.327Z,7.50
2018-08-18T18:38:12.672Z,6.87
2018-08-18T18:40:43.327Z,6.07
2018-08-18T18:43:13.903Z,7.37
2018-08-18T18:45:44.473Z,15.13
2018-08-18T18:48:15.656Z,13.57
2018-08-18T18:50:49.094Z,10.00
2018-08-18T18:53:18.436Z,8.10
2018-08-18T18:55:52.743Z,8.47
2018-08-18T18:58:23.214Z,21.10
2018-08-18T19:00:59.032Z,11.93
2018-08-18T19:03:29.063Z,8.70
2018-08-18T19:05:59.434Z,7.17
2018-08-18T19:08:31.251Z,7.00
2018-08-18T19:11:04.019Z,7.70
2018-08-18T19:13:33.990Z,7.70
2018-08-18T19:16:03.608Z,8.70
2018-08-18T19:18:33.752Z,9.30
2018-08-18T19:21:03.347Z,8.87
2018-08-18T19:23:33.394Z,9.30
2018-08-18T19:26:02.687Z,9.37
2018-08-18T19:28:32.385Z,8.30
2018-08-18T19:31:04.268Z,8.27
2018-08-18T19:33:34.363Z,8.07
2018-08-18T19:36:03.727Z,9.20
2018-08-18T19:38:32.951Z,8.40
2018-08-18T19:41:07.086Z,8.47
2018-08-18T19:43:37.346Z,8.20
2018-08-18T19:46:07.365Z,8.77
2018-08-18T19:48:36.736Z,8.93
2018-08-18T19:51:07.151Z,8.10
2018-08-18T19:53:36.633Z,8.70
2018-08-18T19:56:10.606Z,8.20
2018-08-18T19:58:40.650Z,8.90
2018-08-18T20:01:09.923Z,8.40
2018-08-18T20:03:39.782Z,8.43
2018-08-18T20:06:14.678Z,9.30
2018-08-18T20:08:43.993Z,8.93
2018-08-18T20:11:13.297Z,8.83
2018-08-18T20:13:43.162Z,8.97
2018-08-18T20:16:13.451Z,9.87
2018-08-18T20:18:43.596Z,8.90
2018-08-18T20:21:13.288Z,8.73
2018-08-18T20:23:42.839Z,9.00
2018-08-18T20:26:13.367Z,10.13
2018-08-18T20:28:43.720Z,10.30
2018-08-18T20:31:13.619Z,8.63
2018-08-18T20:33:44.313Z,10.07
2018-08-18T20:36:15.031Z,11.53
2018-08-18T20:38:46.263Z,10.90
2018-08-18T20:41:15.935Z,9.90
2018-08-18T20:43:48.857Z,11.20
2018-08-18T20:46:18.901Z,10.33
2018-08-18T20:48:49.269Z,10.23
2018-08-18T20:51:23.039Z,10.33
2018-08-18T20:53:52.903Z,9.93
2018-08-18T20:56:22.616Z,11.60
2018-08-18T20:58:52.272Z,10.37
2018-08-18T21:01:22.867Z,11.13
2018-08-18T21:03:53.049Z,11.17
2018-08-18T21:06:22.589Z,12.13
2018-08-18T21:08:52.506Z,11.20
2018-08-18T21:11:22.431Z,12.27
2018-08-18T21:13:52.729Z,11.37
2018-08-18T21:16:24.386Z,11.47
2018-08-18T21:18:54.122Z,12.43
2018-08-18T21:21:28.522Z,11.90
2018-08-18T21:23:58.359Z,11.77
2018-08-18T21:26:28.384Z,11.80
2018-08-18T21:28:59.251Z,12.43
2018-08-18T21:31:34.109Z,12.43
2018-08-18T21:34:05.597Z,12.47
2018-08-18T21:36:35.662Z,12.80
2018-08-18T21:39:09.338Z,12.47
2018-08-18T21:41:41.856Z,11.83
2018-08-18T21:44:13.722Z,12.47
2018-08-18T21:46:43.622Z,12.37
2018-08-18T21:49:14.227Z,12.97
2018-08-18T21:51:44.723Z,13.53
2018-08-18T21:54:14.621Z,12.13
2018-08-18T21:56:44.304Z,11.90
2018-08-18T21:59:14.991Z,12.37
2018-08-18T22:01:44.898Z,12.80
2018-08-18T22:04:14.771Z,12.57
2018-08-18T22:06:45.727Z,13.50
2018-08-18T22:09:22.783Z,13.60
2018-08-18T22:11:53.276Z,13.27
2018-08-18T22:14:23.097Z,13.60
2018-08-18T22:16:58.156Z,14.50
2018-08-18T22:19:29.368Z,13.53
2018-08-18T22:21:59.590Z,13.33
2018-08-18T22:24:29.345Z,14.43
2018-08-18T22:26:59.031Z,13.63
2018-08-18T22:29:29.106Z,12.90
2018-08-18T22:31:58.984Z,14.30
2018-08-18T22:34:28.639Z,12.00
2018-08-18T22:37:03.958Z,13.03
2018-08-18T22:39:33.535Z,13.70
2018-08-18T22:42:03.213Z,12.60
2018-08-18T22:44:33.152Z,14.20
2018-08-18T22:47:04.661Z,13.63
2018-08-18T22:49:34.444Z,13.30
2018-08-18T22:52:04.617Z,14.03
2018-08-18T22:54:34.377Z,14.07
2018-08-18T22:57:06.039Z,15.20
2018-08-18T22:59:35.898Z,14.27
2018-08-18T23:02:06.562Z,14.70
2018-08-18T23:04:38.012Z,14.50
2018-08-18T23:07:10.845Z,13.67
2018-08-18T23:09:40.520Z,14.70
2018-08-18T23:12:10.338Z,15.00
2018-08-18T23:14:40.598Z,14.17
2018-08-18T23:17:11.131Z,14.40
2018-08-18T23:19:40.360Z,13.50
2018-08-18T23:22:19.111Z,13.53
2018-08-18T23:24:49.236Z,14.00
2018-08-18T23:27:18.499Z,14.60
2018-08-18T23:29:48.679Z,13.87
2018-08-18T23:32:21.999Z,13.83
2018-08-18T23:34:54.767Z,13.80
2018-08-18T23:37:24.077Z,13.03
2018-08-18T23:39:54.384Z,12.93
2018-08-18T23:42:24.893Z,12.90
2018-08-18T23:44:54.182Z,14.37
2018-08-18T23:47:23.375Z,13.00
2018-08-18T23:49:52.580Z,14.73
2018-08-18T23:52:21.780Z,14.27
2018-08-18T23:54:51.001Z,16.23
2018-08-18T23:57:20.256Z,13.30
2018-08-18T23:59:50.511Z,13.93
